Time;durP1;ratioP1;P1;durP2;ratioP2;P2;SDS_P1;SDS_P2;PMS_P1;PMS_P2;Temp;Humidity;BMP_temperature;BMP_pressure;BME280_temperature;BME280_humidity;BME280_pressure;Samples;Min_cycle;Max_cycle;Signal;HPM_P1;HPM_P2
2023/07/04 02:01:26;;;;;;;11.65;5.47;;;;;;;;;;4612904;27;20494;-75
2023/07/04 02:03:53;;;;;;;11.48;5.57;;;;;;;;;;4255644;33;20061;-76
2023/07/04 02:06:19;;;;;;;19.58;6.10;;;;;;;;;;4254479;33;20112;-75
2023/07/04 02:08:45;;;;;;;14.27;6.10;;;;;;;;;;4255411;33;20104;-77
2023/07/04 02:11:12;;;;;;;16.83;5.80;;;;;;;;;;4254755;33;20061;-77
2023/07/04 02:13:38;;;;;;;17.37;6.05;;;;;;;;;;4254469;33;20060;-77
2023/07/04 02:16:05;;;;;;;10.98;5.68;;;;;;;;;;4255521;33;20057;-77
2023/07/04 02:18:31;;;;;;;16.17;6.35;;;;;;;;;;4267908;33;20050;-77
2023/07/04 02:20:57;;;;;;;16.80;7.78;;;;;;;;;;4266743;33;20520;-76
2023/07/04 02:23:24;;;;;;;15.00;6.50;;;;;;;;;;4266754;33;20128;-76
2023/07/04 02:25:52;;;;;;;13.00;6.15;;;;;;;;;;4264451;33;20054;-76
2023/07/04 02:28:18;;;;;;;20.73;6.28;;;;;;;;;;4267666;33;20038;-77
2023/07/04 02:30:58;;;;;;;15.52;6.87;;;;;;;;;;4267992;33;20057;-77
2023/07/04 02:33:26;;;;;;;12.57;5.53;;;;;;;;;;4266611;33;20045;-77
2023/07/04 02:35:52;;;;;;;14.63;6.60;;;;;;;;;;4266833;33;20030;-77
2023/07/04 02:38:19;;;;;;;15.30;6.28;;;;;;;;;;4267669;33;20396;-77
2023/07/04 02:40:46;;;;;;;16.87;6.78;;;;;;;;;;4279905;33;20080;-77
2023/07/04 02:43:13;;;;;;;12.37;6.25;;;;;;;;;;4281066;33;20053;-77
2023/07/04 02:45:40;;;;;;;17.20;7.25;;;;;;;;;;4279788;33;20112;-77
2023/07/04 02:48:06;;;;;;;17.73;6.75;;;;;;;;;;4280118;33;20413;-77
2023/07/04 02:50:32;;;;;;;17.17;5.93;;;;;;;;;;4279343;33;20072;-77
2023/07/04 02:52:59;;;;;;;23.77;6.40;;;;;;;;;;4281469;33;20045;-77
2023/07/04 02:55:27;;;;;;;16.50;6.28;;;;;;;;;;4269226;33;20022;-77
2023/07/04 02:57:54;;;;;;;20.15;6.82;;;;;;;;;;4238162;33;20076;-77
2023/07/04 03:00:21;;;;;;;12.82;6.78;;;;;;;;;;4239100;33;20050;-76
2023/07/04 03:02:47;;;;;;;17.55;6.43;;;;;;;;;;4236318;33;20415;-77
2023/07/04 03:05:14;;;;;;;12.37;6.62;;;;;;;;;;4238572;33;20104;-77
2023/07/04 03:07:41;;;;;;;25.17;8.20;;;;;;;;;;4265695;33;20050;-77
2023/07/04 03:10:07;;;;;;;16.33;6.87;;;;;;;;;;4266686;33;20033;-77
2023/07/04 03:12:34;;;;;;;18.77;6.95;;;;;;;;;;4265869;33;20067;-77
2023/07/04 03:15:00;;;;;;;14.65;6.15;;;;;;;;;;4265518;33;20447;-77
2023/07/04 03:17:27;;;;;;;14.00;6.68;;;;;;;;;;4266854;33;20089;-77
2023/07/04 03:19:53;;;;;;;14.07;5.60;;;;;;;;;;4264656;33;20424;-77
2023/07/04 03:22:20;;;;;;;19.27;6.45;;;;;;;;;;4266480;33;20448;-77
2023/07/04 03:24:46;;;;;;;11.95;6.53;;;;;;;;;;4265749;33;20180;-76
2023/07/04 03:27:13;;;;;;;13.80;6.22;;;;;;;;;;4236756;33;20062;-77
2023/07/04 03:29:40;;;;;;;20.83;7.90;;;;;;;;;;4236850;33;20078;-77
2023/07/04 03:32:07;;;;;;;14.23;6.78;;;;;;;;;;4236298;33;20093;-77
2023/07/04 03:34:34;;;;;;;16.20;6.87;;;;;;;;;;4236957;33;20076;-77
2023/07/04 03:37:01;;;;;;;17.92;7.47;;;;;;;;;;4238395;33;20072;-76
2023/07/04 03:39:28;;;;;;;13.43;7.35;;;;;;;;;;4226194;33;20832;-76
2023/07/04 03:41:54;;;;;;;15.05;6.72;;;;;;;;;;4222017;33;20498;-75
2023/07/04 03:44:20;;;;;;;18.58;7.25;;;;;;;;;;4223096;34;20105;-75
2023/07/04 03:46:47;;;;;;;21.77;6.87;;;;;;;;;;4222824;33;20121;-75
2023/07/04 03:49:14;;;;;;;14.93;5.90;;;;;;;;;;4222785;33;20046;-76
2023/07/04 03:51:40;;;;;;;24.77;8.32;;;;;;;;;;4223767;33;20452;-76
2023/07/04 03:54:06;;;;;;;22.98;8.10;;;;;;;;;;4220688;33;20162;-77
2023/07/04 03:56:33;;;;;;;22.05;6.30;;;;;;;;;;4236942;33;20051;-75
2023/07/04 03:58:59;;;;;;;13.65;6.90;;;;;;;;;;4248248;33;20093;-76
2023/07/04 04:01:25;;;;;;;26.73;6.60;;;;;;;;;;4251768;33;20068;-76
2023/07/04 04:03:53;;;;;;;27.35;6.37;;;;;;;;;;4251328;33;20050;-75
2023/07/04 04:06:19;;;;;;;17.00;6.70;;;;;;;;;;4249131;33;20069;-76
2023/07/04 04:08:46;;;;;;;21.95;6.80;;;;;;;;;;4252119;33;20410;-75
2023/07/04 04:11:12;;;;;;;15.07;5.70;;;;;;;;;;4263393;33;20046;-76
2023/07/04 04:13:38;;;;;;;22.13;7.22;;;;;;;;;;4266155;33;20033;-75
2023/07/04 04:16:04;;;;;;;23.05;6.93;;;;;;;;;;4265772;33;20046;-76
2023/07/04 04:18:37;;;;;;;15.77;6.95;;;;;;;;;;4265796;33;20527;-75
2023/07/04 04:21:03;;;;;;;18.98;7.25;;;;;;;;;;4266389;33;20037;-76
2023/07/04 04:23:30;;;;;;;17.40;7.45;;;;;;;;;;4265996;33;20050;-75
2023/07/04 04:26:03;;;;;;;19.37;7.57;;;;;;;;;;4266176;33;20467;-76
2023/07/04 04:28:29;;;;;;;22.52;6.82;;;;;;;;;;4254219;33;20454;-76
2023/07/04 04:30:56;;;;;;;19.15;6.80;;;;;;;;;;4276475;33;20663;-76
2023/07/04 04:33:21;;;;;;;17.25;7.28;;;;;;;;;;4274244;33;20042;-76
2023/07/04 04:35:48;;;;;;;23.38;6.78;;;;;;;;;;4266208;33;20046;-75
2023/07/04 04:38:14;;;;;;;26.52;7.30;;;;;;;;;;4265098;33;20042;-75
2023/07/04 04:40:40;;;;;;;20.05;7.03;;;;;;;;;;4263042;33;20045;-76
2023/07/04 04:43:07;;;;;;;19.27;6.87;;;;;;;;;;4265804;33;20718;-75
2023/07/04 04:45:34;;;;;;;14.70;6.00;;;;;;;;;;4265627;33;20059;-76
2023/07/04 04:48:01;;;;;;;15.18;5.97;;;;;;;;;;4265397;33;20415;-75
2023/07/04 04:50:30;;;;;;;13.18;6.60;;;;;;;;;;4237066;33;20058;-75
2023/07/04 04:52:57;;;;;;;16.75;5.53;;;;;;;;;;4236598;33;20124;-75
2023/07/04 04:55:24;;;;;;;26.17;5.53;;;;;;;;;;4237311;33;20050;-74
2023/07/04 04:57:49;;;;;;;13.05;5.57;;;;;;;;;;4238787;33;20030;-76
2023/07/04 05:00:16;;;;;;;12.68;4.97;;;;;;;;;;4247337;33;20045;-76
2023/07/04 05:02:44;;;;;;;16.52;5.60;;;;;;;;;;4238527;33;20511;-76
2023/07/04 05:05:11;;;;;;;10.52;4.82;;;;;;;;;;4236053;33;20050;-75
2023/07/04 05:07:38;;;;;;;6.55;4.68;;;;;;;;;;4237250;33;20069;-76
2023/07/04 05:10:04;;;;;;;11.45;4.37;;;;;;;;;;4237428;33;20050;-76
2023/07/04 05:12:30;;;;;;;13.85;4.97;;;;;;;;;;4237194;33;20052;-76
2023/07/04 05:14:57;;;;;;;14.75;5.93;;;;;;;;;;4235274;33;20107;-77
2023/07/04 05:17:24;;;;;;;27.08;4.97;;;;;;;;;;4238922;33;20377;-77
2023/07/04 05:19:50;;;;;;;20.55;4.80;;;;;;;;;;4239861;33;20386;-76
2023/07/04 05:22:16;;;;;;;10.95;4.70;;;;;;;;;;4252787;33;20404;-76
2023/07/04 05:24:42;;;;;;;13.57;4.18;;;;;;;;;;4256330;33;20053;-76
2023/07/04 05:27:08;;;;;;;13.98;4.90;;;;;;;;;;4254574;33;20473;-77
2023/07/04 05:29:35;;;;;;;25.23;5.07;;;;;;;;;;4256512;33;20091;-77
2023/07/04 05:32:01;;;;;;;21.95;5.30;;;;;;;;;;4256268;33;20057;-75
2023/07/04 05:34:27;;;;;;;16.35;5.53;;;;;;;;;;4256339;33;20493;-75
2023/07/04 05:36:54;;;;;;;13.13;5.07;;;;;;;;;;4254512;33;20058;-77
2023/07/04 05:39:20;;;;;;;15.00;4.22;;;;;;;;;;4254281;33;20173;-77
2023/07/04 05:41:46;;;;;;;24.55;4.70;;;;;;;;;;4253650;33;20068;-74
2023/07/04 05:44:13;;;;;;;15.43;5.07;;;;;;;;;;4256128;33;20050;-75
2023/07/04 05:46:38;;;;;;;17.90;5.15;;;;;;;;;;4255508;33;20174;-74
2023/07/04 05:49:05;;;;;;;14.98;4.20;;;;;;;;;;4256071;33;20050;-77
2023/07/04 05:51:31;;;;;;;24.77;4.50;;;;;;;;;;4254930;33;20064;-78
2023/07/04 05:53:58;;;;;;;15.13;4.05;;;;;;;;;;4255477;33;20042;-77
2023/07/04 05:56:28;;;;;;;17.15;5.07;;;;;;;;;;4255960;33;20141;-77
2023/07/04 05:58:59;;;;;;;16.48;4.82;;;;;;;;;;4256180;33;20053;-77
2023/07/04 06:01:41;;;;;;;13.45;4.55;;;;;;;;;;4255601;33;20068;-77
2023/07/04 06:04:09;;;;;;;17.42;4.05;;;;;;;;;;4255825;33;20346;-77
2023/07/04 06:06:36;;;;;;;19.08;5.37;;;;;;;;;;4256012;33;20056;-76
2023/07/04 06:09:05;;;;;;;14.77;4.72;;;;;;;;;;4256218;33;20073;-76
2023/07/04 06:11:32;;;;;;;11.05;3.40;;;;;;;;;;4254974;33;20053;-78
2023/07/04 06:13:58;;;;;;;14.40;3.87;;;;;;;;;;4253519;33;20058;-76
2023/07/04 06:16:24;;;;;;;10.43;3.87;;;;;;;;;;4281747;33;20088;-76
2023/07/04 06:18:51;;;;;;;16.67;4.07;;;;;;;;;;4281077;33;20618;-76
2023/07/04 06:21:18;;;;;;;16.77;4.47;;;;;;;;;;4281755;33;20073;-76
2023/07/04 06:23:44;;;;;;;16.65;3.78;;;;;;;;;;4280235;33;20071;-76
2023/07/04 06:26:11;;;;;;;8.40;4.15;;;;;;;;;;4279956;33;20059;-75
2023/07/04 06:28:38;;;;;;;15.20;4.37;;;;;;;;;;4281199;33;20170;-76
2023/07/04 06:31:07;;;;;;;19.73;3.35;;;;;;;;;;4280812;33;20034;-74
2023/07/04 06:33:34;;;;;;;11.57;3.90;;;;;;;;;;4281384;33;20059;-76
2023/07/04 06:36:00;;;;;;;10.43;4.12;;;;;;;;;;4280524;33;20022;-78
2023/07/04 06:38:27;;;;;;;13.93;3.78;;;;;;;;;;4279845;33;20050;-77
2023/07/04 06:41:10;;;;;;;13.82;3.30;;;;;;;;;;4281408;33;20489;-77
2023/07/04 06:43:36;;;;;;;7.03;3.20;;;;;;;;;;4265564;33;20075;-77
2023/07/04 06:46:13;;;;;;;10.02;3.15;;;;;;;;;;4265162;33;20495;-77
2023/07/04 06:48:39;;;;;;;15.57;4.40;;;;;;;;;;4237383;33;20697;-77
2023/07/04 06:51:12;;;;;;;13.55;3.30;;;;;;;;;;4238898;33;20030;-77
2023/07/04 06:53:39;;;;;;;5.25;2.62;;;;;;;;;;4238876;33;20378;-76
2023/07/04 06:56:07;;;;;;;5.70;2.87;;;;;;;;;;4235039;33;20030;-77
2023/07/04 06:58:34;;;;;;;5.65;2.30;;;;;;;;;;4237991;33;20088;-77
2023/07/04 07:01:02;;;;;;;13.80;3.62;;;;;;;;;;4238635;33;20055;-77
2023/07/04 07:03:31;;;;;;;10.57;3.37;;;;;;;;;;4238426;33;20089;-77
2023/07/04 07:06:00;;;;;;;9.05;2.70;;;;;;;;;;4237955;33;20065;-77
2023/07/04 07:08:26;;;;;;;8.52;2.55;;;;;;;;;;4237545;33;20038;-77
2023/07/04 07:10:53;;;;;;;7.35;2.70;;;;;;;;;;4238466;33;20246;-76
2023/07/04 07:13:19;;;;;;;6.90;2.20;;;;;;;;;;4238427;33;20532;-76
2023/07/04 07:15:46;;;;;;;11.05;2.72;;;;;;;;;;4236704;33;20030;-76
2023/07/04 07:18:12;;;;;;;7.47;2.53;;;;;;;;;;4237134;33;20697;-76
2023/07/04 07:20:38;;;;;;;13.02;3.10;;;;;;;;;;4235254;33;20050;-76
2023/07/04 07:23:04;;;;;;;11.43;2.97;;;;;;;;;;4237984;33;20088;-75
2023/07/04 07:25:30;;;;;;;7.90;3.40;;;;;;;;;;4236259;33;20051;-76
2023/07/04 07:27:57;;;;;;;12.32;2.60;;;;;;;;;;4249210;33;20078;-77
2023/07/04 07:30:23;;;;;;;10.68;2.92;;;;;;;;;;4252346;33;20348;-77
2023/07/04 07:32:50;;;;;;;10.45;2.97;;;;;;;;;;4251572;33;20065;-76
2023/07/04 07:35:16;;;;;;;14.50;3.55;;;;;;;;;;4235730;33;20054;-76
2023/07/04 07:37:42;;;;;;;10.63;2.20;;;;;;;;;;4223791;34;20081;-76
2023/07/04 07:40:08;;;;;;;5.62;2.33;;;;;;;;;;4222761;33;20444;-76
2023/07/04 07:42:38;;;;;;;8.35;2.30;;;;;;;;;;4223682;34;20042;-76
2023/07/04 07:45:04;;;;;;;15.50;2.70;;;;;;;;;;4222210;34;20049;-77
2023/07/04 07:47:30;;;;;;;24.33;11.25;;;;;;;;;;4209048;34;20089;-77
2023/07/04 07:49:56;;;;;;;6.53;2.83;;;;;;;;;;4210165;34;20917;-77
2023/07/04 07:52:23;;;;;;;10.60;2.65;;;;;;;;;;4209061;34;20475;-77
2023/07/04 07:54:49;;;;;;;9.55;2.92;;;;;;;;;;4209761;34;20035;-76
2023/07/04 07:57:15;;;;;;;4.07;2.78;;;;;;;;;;4209453;34;20047;-76
2023/07/04 07:59:41;;;;;;;6.43;2.70;;;;;;;;;;4208646;34;20030;-76
2023/07/04 08:02:13;;;;;;;14.15;2.80;;;;;;;;;;4208936;34;20085;-76
2023/07/04 08:04:46;;;;;;;5.72;2.92;;;;;;;;;;4208752;34;20051;-76
2023/07/04 08:07:12;;;;;;;8.40;2.58;;;;;;;;;;4221194;34;20069;-78
2023/07/04 08:09:38;;;;;;;6.95;2.50;;;;;;;;;;4221960;34;20539;-76
2023/07/04 08:12:04;;;;;;;8.57;2.35;;;;;;;;;;4223764;34;20433;-76
2023/07/04 08:14:30;;;;;;;18.95;3.08;;;;;;;;;;4223688;34;20481;-76
2023/07/04 08:16:56;;;;;;;9.27;2.42;;;;;;;;;;4223140;34;20460;-75
2023/07/04 08:19:23;;;;;;;5.53;1.83;;;;;;;;;;4233578;33;20062;-76
2023/07/04 08:21:49;;;;;;;7.43;2.53;;;;;;;;;;4236286;33;20050;-76
2023/07/04 08:24:16;;;;;;;12.52;2.50;;;;;;;;;;4237833;33;20085;-75
2023/07/04 08:26:46;;;;;;;13.68;3.55;;;;;;;;;;4236593;33;20630;-74
2023/07/04 08:29:12;;;;;;;11.27;2.33;;;;;;;;;;4236373;33;20022;-75
2023/07/04 08:31:39;;;;;;;13.20;3.25;;;;;;;;;;4235644;33;20053;-76
2023/07/04 08:34:05;;;;;;;36.17;4.12;;;;;;;;;;4237731;33;20100;-76
2023/07/04 08:36:32;;;;;;;9.98;3.47;;;;;;;;;;4261422;33;20053;-75
2023/07/04 08:38:59;;;;;;;5.65;2.50;;;;;;;;;;4236967;33;20136;-75
2023/07/04 08:41:25;;;;;;;6.45;3.35;;;;;;;;;;4236656;33;20182;-76
2023/07/04 08:43:56;;;;;;;10.00;2.40;;;;;;;;;;4234493;33;20031;-77
2023/07/04 08:46:22;;;;;;;4.40;2.93;;;;;;;;;;4236631;33;20058;-76
2023/07/04 08:48:48;;;;;;;8.57;2.55;;;;;;;;;;4229961;33;20405;-75
2023/07/04 08:51:32;;;;;;;13.57;2.55;;;;;;;;;;4249771;33;20046;-75
2023/07/04 08:53:59;;;;;;;11.57;3.28;;;;;;;;;;4249320;33;20065;-75
2023/07/04 08:56:34;;;;;;;5.03;2.47;;;;;;;;;;4250504;33;20061;-75
2023/07/04 08:59:13;;;;;;;6.57;3.00;;;;;;;;;;4222575;34;20067;-75
2023/07/04 09:01:42;;;;;;;6.18;2.55;;;;;;;;;;4220531;33;20051;-75
2023/07/04 09:04:13;;;;;;;11.25;3.03;;;;;;;;;;4222634;34;20064;-74
2023/07/04 09:06:43;;;;;;;2.85;2.22;;;;;;;;;;4222764;34;20516;-75
2023/07/04 09:09:15;;;;;;;7.25;3.33;;;;;;;;;;4224086;33;20076;-76
2023/07/04 09:11:42;;;;;;;5.03;2.62;;;;;;;;;;4204585;34;20055;-75
2023/07/04 09:14:12;;;;;;;9.63;3.03;;;;;;;;;;4208669;34;20424;-75
2023/07/04 09:16:40;;;;;;;6.65;2.83;;;;;;;;;;4235891;33;20058;-76
2023/07/04 09:19:08;;;;;;;5.40;2.78;;;;;;;;;;4232796;33;20080;-76
2023/07/04 09:21:36;;;;;;;11.25;3.47;;;;;;;;;;4234729;33;20061;-77
2023/07/04 09:24:03;;;;;;;11.30;3.22;;;;;;;;;;4230469;33;20302;-76
2023/07/04 09:26:41;;;;;;;11.88;2.97;;;;;;;;;;4229013;33;20051;-75
2023/07/04 09:29:07;;;;;;;5.82;2.90;;;;;;;;;;4242352;33;20080;-75
2023/07/04 09:31:36;;;;;;;19.37;3.22;;;;;;;;;;4247951;33;20075;-76
2023/07/04 09:34:05;;;;;;;8.48;2.97;;;;;;;;;;4235731;33;20101;-76
2023/07/04 09:36:33;;;;;;;4.12;2.62;;;;;;;;;;4236644;33;20115;-76
2023/07/04 09:39:04;;;;;;;6.57;3.03;;;;;;;;;;4218656;33;20068;-76
2023/07/04 09:41:31;;;;;;;;;;;;;;;;;;4220618;34;20073;-77
2023/07/04 09:44:11;;;;;;;11.15;3.37;;;;;;;;;;4232094;33;19995;-76
2023/07/04 09:46:38;;;;;;;9.05;3.35;;;;;;;;;;4236125;33;20098;-76
2023/07/04 09:49:22;;;;;;;6.80;3.08;;;;;;;;;;4235993;33;20042;-76
2023/07/04 09:51:56;;;;;;;5.07;3.08;;;;;;;;;;4234754;33;20141;-76
2023/07/04 09:54:22;;;;;;;10.75;3.20;;;;;;;;;;4235149;33;20094;-76
2023/07/04 09:56:48;;;;;;;22.05;5.55;;;;;;;;;;4236357;33;20062;-75
2023/07/04 09:59:14;;;;;;;8.18;3.87;;;;;;;;;;4234469;33;20093;-77
2023/07/04 10:01:43;;;;;;;7.45;3.42;;;;;;;;;;4234044;33;20065;-76
2023/07/04 10:04:11;;;;;;;9.80;4.30;;;;;;;;;;4237370;33;20047;-76
2023/07/04 10:06:38;;;;;;;9.80;3.67;;;;;;;;;;4234501;33;20546;-77
2023/07/04 10:09:11;;;;;;;11.05;4.03;;;;;;;;;;4236464;33;20038;-76
2023/07/04 10:11:39;;;;;;;19.45;3.78;;;;;;;;;;4254193;33;20614;-77
2023/07/04 10:14:07;;;;;;;8.30;4.10;;;;;;;;;;4281757;33;20467;-77
2023/07/04 10:16:33;;;;;;;6.00;3.55;;;;;;;;;;4281340;33;20119;-77
2023/07/04 10:19:23;;;;;;;10.20;4.70;;;;;;;;;;4281754;33;20063;-76
2023/07/04 10:21:52;;;;;;;7.50;3.70;;;;;;;;;;4242309;33;20049;-77
2023/07/04 10:24:22;;;;;;;18.98;3.85;;;;;;;;;;4244432;33;20055;-76
2023/07/04 10:29:35;;;;;;;10.75;4.07;;;;;;;;;;4246957;33;20320;-76
2023/07/04 10:32:03;;;;;;;8.13;3.37;;;;;;;;;;4246491;33;20068;-77
2023/07/04 10:34:30;;;;;;;17.50;4.03;;;;;;;;;;4246112;33;20051;-76
2023/07/04 10:36:57;;;;;;;11.85;4.15;;;;;;;;;;4244460;33;20412;-75
2023/07/04 10:39:24;;;;;;;8.63;4.57;;;;;;;;;;4251550;33;20291;-75
2023/07/04 10:41:53;;;;;;;13.55;5.53;;;;;;;;;;4252989;33;20620;-74
2023/07/04 10:44:21;;;;;;;14.15;4.12;;;;;;;;;;4250734;33;20068;-75
2023/07/04 10:46:51;;;;;;;11.75;3.92;;;;;;;;;;4237370;33;20111;-75
2023/07/04 10:49:19;;;;;;;11.38;5.35;;;;;;;;;;4239015;33;20094;-76
2023/07/04 10:51:46;;;;;;;9.85;4.57;;;;;;;;;;4239361;33;20534;-77
2023/07/04 10:54:12;;;;;;;7.62;4.53;;;;;;;;;;4255599;33;20047;-76
2023/07/04 10:56:43;;;;;;;10.45;4.25;;;;;;;;;;4252940;33;20046;-76
2023/07/04 10:59:26;;;;;;;14.70;4.20;;;;;;;;;;4255739;33;20053;-76
2023/07/04 11:01:55;;;;;;;10.27;4.18;;;;;;;;;;4419354;28;20083;-77
2023/07/04 11:04:23;;;;;;;9.77;4.47;;;;;;;;;;4274752;33;20458;-77
2023/07/04 11:06:58;;;;;;;13.55;4.80;;;;;;;;;;4274568;33;20049;-77
2023/07/04 11:09:25;;;;;;;14.43;5.10;;;;;;;;;;4268922;33;20045;-77
2023/07/04 11:11:59;;;;;;;18.23;5.22;;;;;;;;;;4266529;33;20065;-76
2023/07/04 11:14:27;;;;;;;6.85;3.85;;;;;;;;;;4268899;33;20061;-75
2023/07/04 11:16:54;;;;;;;7.43;3.75;;;;;;;;;;4268836;33;20067;-75
2023/07/04 11:19:21;;;;;;;12.25;4.47;;;;;;;;;;4268356;33;20059;-76
2023/07/04 11:22:02;;;;;;;8.15;5.07;;;;;;;;;;4270832;33;20109;-76
2023/07/04 11:24:51;;;;;;;9.82;4.85;;;;;;;;;;4262630;33;20107;-75
2023/07/04 11:27:24;;;;;;;15.55;4.85;;;;;;;;;;4275858;33;20151;-75
2023/07/04 11:29:54;;;;;;;10.57;5.53;;;;;;;;;;4278911;33;20436;-76
2023/07/04 11:32:40;;;;;;;8.75;5.40;;;;;;;;;;4276436;33;20075;-75
2023/07/04 11:35:09;;;;;;;9.30;5.78;;;;;;;;;;4276973;33;20071;-75
2023/07/04 11:37:54;;;;;;;6.60;5.15;;;;;;;;;;4281771;33;20059;-75
2023/07/04 11:40:30;;;;;;;12.10;5.87;;;;;;;;;;4283346;33;20472;-76
2023/07/04 11:42:59;;;;;;;7.72;5.43;;;;;;;;;;4278514;33;20170;-77
2023/07/04 11:45:26;;;;;;;9.18;5.90;;;;;;;;;;4275811;33;20037;-76
2023/07/04 11:48:00;;;;;;;18.37;6.00;;;;;;;;;;4275305;33;20050;-76
2023/07/04 11:50:29;;;;;;;21.37;5.25;;;;;;;;;;4281558;33;20030;-76
2023/07/04 11:52:57;;;;;;;13.10;5.25;;;;;;;;;;4276534;33;20105;-75
2023/07/04 11:55:29;;;;;;;15.48;7.18;;;;;;;;;;4273405;33;20442;-75
2023/07/04 11:57:59;;;;;;;17.73;5.85;;;;;;;;;;4261135;33;20037;-75
2023/07/04 12:00:40;;;;;;;13.90;6.57;;;;;;;;;;4265549;33;20505;-76
2023/07/04 12:03:15;;;;;;;14.57;5.72;;;;;;;;;;4259316;33;20049;-75
2023/07/04 12:05:42;;;;;;;11.98;6.18;;;;;;;;;;4260173;33;20063;-75
2023/07/04 12:08:16;;;;;;;9.50;5.72;;;;;;;;;;4262260;33;20060;-74
2023/07/04 12:10:42;;;;;;;12.30;6.22;;;;;;;;;;4258272;33;20018;-76
2023/07/04 12:13:09;;;;;;;12.13;6.53;;;;;;;;;;4265138;33;20069;-75
2023/07/04 12:15:37;;;;;;;9.43;6.12;;;;;;;;;;4265789;33;20045;-75
2023/07/04 12:18:21;;;;;;;14.50;7.53;;;;;;;;;;4265890;33;20042;-75
2023/07/04 12:20:47;;;;;;;11.90;6.47;;;;;;;;;;4259835;33;20722;-75
2023/07/04 12:23:14;;;;;;;14.18;5.35;;;;;;;;;;4263882;33;20800;-75
2023/07/04 12:25:41;;;;;;;13.73;6.60;;;;;;;;;;4207944;34;20047;-75
2023/07/04 12:28:11;;;;;;;7.95;5.25;;;;;;;;;;4211773;34;20116;-76
2023/07/04 12:30:40;;;;;;;15.15;7.37;;;;;;;;;;4221320;34;20069;-77
2023/07/04 12:33:18;;;;;;;10.07;5.87;;;;;;;;;;4208796;34;20453;-76
2023/07/04 12:35:52;;;;;;;14.50;6.70;;;;;;;;;;4208749;34;20042;-76
2023/07/04 12:38:25;;;;;;;10.98;6.57;;;;;;;;;;4205146;34;20054;-77
2023/07/04 12:40:52;;;;;;;17.25;6.95;;;;;;;;;;4208397;34;20069;-77
2023/07/04 12:43:20;;;;;;;12.85;6.95;;;;;;;;;;4208999;34;20045;-75
2023/07/04 12:45:47;;;;;;;12.27;7.25;;;;;;;;;;4207717;34;20130;-77
2023/07/04 12:48:14;;;;;;;9.65;6.90;;;;;;;;;;4208366;34;20047;-77
2023/07/04 12:50:45;;;;;;;18.37;7.10;;;;;;;;;;4206695;34;20441;-74
2023/07/04 12:53:11;;;;;;;16.40;8.20;;;;;;;;;;4208005;34;20122;-76
2023/07/04 12:55:39;;;;;;;16.02;7.37;;;;;;;;;;4207719;34;20503;-75
2023/07/04 12:58:06;;;;;;;18.08;8.63;;;;;;;;;;4221245;34;20417;-76
2023/07/04 13:00:39;;;;;;;13.10;7.30;;;;;;;;;;4221895;34;20059;-76
2023/07/04 13:03:10;;;;;;;10.43;6.82;;;;;;;;;;4234187;33;20064;-76
2023/07/04 13:05:41;;;;;;;10.02;7.40;;;;;;;;;;4266081;33;20362;-76
2023/07/04 13:08:21;;;;;;;17.80;7.20;;;;;;;;;;4262590;33;20442;-76
2023/07/04 13:10:48;;;;;;;13.10;7.97;;;;;;;;;;4276595;33;20494;-75
2023/07/04 13:13:35;;;;;;;13.57;7.57;;;;;;;;;;4278666;33;20389;-75
2023/07/04 13:16:18;;;;;;;14.20;9.00;;;;;;;;;;4247837;33;20042;-76
2023/07/04 13:18:45;;;;;;;12.48;9.38;;;;;;;;;;4235749;33;20038;-75
2023/07/04 13:21:23;;;;;;;14.23;9.55;;;;;;;;;;4226762;33;20498;-75
2023/07/04 13:23:50;;;;;;;13.40;8.95;;;;;;;;;;4226281;33;21036;-76
2023/07/04 13:26:22;;;;;;;11.85;8.18;;;;;;;;;;4203889;34;20088;-76
2023/07/04 13:28:52;;;;;;;17.80;8.93;;;;;;;;;;4216671;34;20104;-76
2023/07/04 13:31:24;;;;;;;14.70;7.60;;;;;;;;;;4216653;34;20102;-76
2023/07/04 13:33:57;;;;;;;12.02;7.65;;;;;;;;;;4230029;33;20072;-76
2023/07/04 13:36:34;;;;;;;14.23;8.77;;;;;;;;;;4210998;34;20069;-75
2023/07/04 13:39:01;;;;;;;19.95;10.55;;;;;;;;;;4207548;34;20436;-76
2023/07/04 13:41:27;;;;;;;17.30;10.02;;;;;;;;;;4190031;34;20082;-76
2023/07/04 13:43:53;;;;;;;17.33;8.38;;;;;;;;;;4182193;34;20115;-77
2023/07/04 13:46:20;;;;;;;16.48;9.80;;;;;;;;;;4195654;34;20092;-75
2023/07/04 13:48:46;;;;;;;23.02;9.05;;;;;;;;;;4197185;34;20081;-75
2023/07/04 13:51:12;;;;;;;14.15;7.95;;;;;;;;;;4209966;34;20073;-76
2023/07/04 13:53:38;;;;;;;12.82;8.38;;;;;;;;;;4225333;33;20294;-75
2023/07/04 13:56:05;;;;;;;37.13;10.70;;;;;;;;;;4239634;33;20043;-76
2023/07/04 13:58:31;;;;;;;19.33;9.48;;;;;;;;;;4232792;33;20034;-76
2023/07/04 14:00:57;;;;;;;16.33;9.73;;;;;;;;;;4224834;34;20060;-75
2023/07/04 14:03:23;;;;;;;11.25;7.87;;;;;;;;;;4224294;34;20050;-76
2023/07/04 14:05:49;;;;;;;26.42;10.02;;;;;;;;;;4225175;34;20065;-75
2023/07/04 14:08:15;;;;;;;11.95;8.43;;;;;;;;;;4248402;33;20073;-76
2023/07/04 14:10:42;;;;;;;18.58;9.93;;;;;;;;;;4253804;33;20038;-77
2023/07/04 14:13:08;;;;;;;12.73;9.32;;;;;;;;;;4241862;33;20078;-76
2023/07/04 14:15:34;;;;;;;16.80;9.43;;;;;;;;;;4251879;33;20064;-76
2023/07/04 14:18:02;;;;;;;15.60;9.23;;;;;;;;;;4252891;33;20042;-76
2023/07/04 14:20:29;;;;;;;15.10;9.35;;;;;;;;;;4253338;33;20076;-75
2023/07/04 14:22:55;;;;;;;17.27;9.77;;;;;;;;;;4253550;33;20035;-76
2023/07/04 14:25:22;;;;;;;14.43;8.95;;;;;;;;;;4255798;33;20073;-75
2023/07/04 14:27:48;;;;;;;17.62;10.80;;;;;;;;;;4250343;33;20431;-75
2023/07/04 14:30:14;;;;;;;19.35;10.38;;;;;;;;;;4255870;33;20983;-75
2023/07/04 14:32:40;;;;;;;21.08;10.20;;;;;;;;;;4255980;33;20062;-77
2023/07/04 14:35:07;;;;;;;16.15;10.10;;;;;;;;;;4243611;33;20074;-76
2023/07/04 14:37:33;;;;;;;17.90;9.98;;;;;;;;;;4242945;33;20042;-76
2023/07/04 14:39:59;;;;;;;14.87;8.93;;;;;;;;;;4250212;33;20133;-76
2023/07/04 14:42:26;;;;;;;14.43;9.40;;;;;;;;;;4240689;33;20060;-77
2023/07/04 14:44:54;;;;;;;15.07;9.85;;;;;;;;;;4249699;33;20042;-75
2023/07/04 14:47:20;;;;;;;20.40;10.30;;;;;;;;;;4246233;33;20046;-75
2023/07/04 14:49:47;;;;;;;20.10;9.73;;;;;;;;;;4240662;33;20416;-75
2023/07/04 14:52:13;;;;;;;18.12;10.40;;;;;;;;;;4208226;34;20070;-76
2023/07/04 14:54:39;;;;;;;17.25;10.30;;;;;;;;;;4211111;34;20055;-76
2023/07/04 14:57:06;;;;;;;14.32;10.48;;;;;;;;;;4210962;34;20066;-76
2023/07/04 14:59:33;;;;;;;17.02;9.98;;;;;;;;;;4209743;34;20474;-75
2023/07/04 15:01:59;;;;;;;22.20;10.60;;;;;;;;;;4181483;34;20078;-76
2023/07/04 15:04:26;;;;;;;17.17;11.80;;;;;;;;;;4179652;34;20394;-77
2023/07/04 15:06:56;;;;;;;20.58;12.95;;;;;;;;;;4193851;34;20336;-77
2023/07/04 15:09:23;;;;;;;;;;;;;;;;;;4183510;34;20430;-77
2023/07/04 15:11:49;;;;;;;15.02;11.15;;;;;;;;;;4181424;34;19965;-77
2023/07/04 15:14:21;;;;;;;25.85;13.48;;;;;;;;;;4180693;34;20044;-77
2023/07/04 15:16:47;;;;;;;19.87;13.70;;;;;;;;;;4194924;34;20065;-76
2023/07/04 15:19:13;;;;;;;17.20;11.55;;;;;;;;;;4195825;34;20077;-75
2023/07/04 15:21:40;;;;;;;19.25;12.80;;;;;;;;;;4182624;34;20040;-74
2023/07/04 15:24:06;;;;;;;24.12;13.57;;;;;;;;;;4182039;34;20061;-76
2023/07/04 15:26:32;;;;;;;29.83;14.60;;;;;;;;;;4180385;34;20048;-75
2023/07/04 15:28:58;;;;;;;21.42;14.25;;;;;;;;;;4182512;34;20076;-75
2023/07/04 15:31:25;;;;;;;22.48;14.68;;;;;;;;;;4194929;34;20031;-76
2023/07/04 15:33:51;;;;;;;27.15;12.95;;;;;;;;;;4206229;34;20583;-76
2023/07/04 15:36:18;;;;;;;19.75;13.95;;;;;;;;;;4209778;34;20065;-76
2023/07/04 15:38:45;;;;;;;23.65;13.38;;;;;;;;;;4208893;34;20035;-75
2023/07/04 15:41:29;;;;;;;23.20;14.75;;;;;;;;;;4209527;34;20035;-75
2023/07/04 15:43:55;;;;;;;29.12;15.70;;;;;;;;;;4209193;34;20375;-75
2023/07/04 15:46:22;;;;;;;25.00;14.85;;;;;;;;;;4215389;33;20076;-76
2023/07/04 15:48:48;;;;;;;20.48;14.13;;;;;;;;;;4224278;33;20099;-76
2023/07/04 15:51:16;;;;;;;25.08;15.05;;;;;;;;;;4195952;34;20479;-76
2023/07/04 15:53:42;;;;;;;21.00;14.00;;;;;;;;;;4195757;34;20077;-75
2023/07/04 15:56:10;;;;;;;27.00;14.65;;;;;;;;;;4207650;34;20493;-76
2023/07/04 15:58:37;;;;;;;24.58;15.30;;;;;;;;;;4208131;34;20047;-76
2023/07/04 16:01:04;;;;;;;27.13;15.68;;;;;;;;;;4208677;34;20051;-75
2023/07/04 16:03:32;;;;;;;28.70;15.27;;;;;;;;;;4222335;34;20503;-75
2023/07/04 16:05:59;;;;;;;25.83;16.70;;;;;;;;;;4222332;34;20051;-76
2023/07/04 16:08:27;;;;;;;24.08;14.95;;;;;;;;;;4223422;34;20515;-75
2023/07/04 16:10:57;;;;;;;24.08;16.67;;;;;;;;;;4222308;34;20523;-75
2023/07/04 16:13:24;;;;;;;30.12;15.95;;;;;;;;;;4235969;33;20528;-75
2023/07/04 16:15:50;;;;;;;30.60;18.23;;;;;;;;;;4237798;33;20050;-75
2023/07/04 16:18:16;;;;;;;25.08;15.63;;;;;;;;;;4237860;33;20050;-75
2023/07/04 16:20:43;;;;;;;20.90;15.27;;;;;;;;;;4235495;33;20039;-76
2023/07/04 16:23:10;;;;;;;20.98;15.07;;;;;;;;;;4261355;33;20103;-75
2023/07/04 16:25:39;;;;;;;25.12;15.60;;;;;;;;;;4265983;33;20049;-76
2023/07/04 16:28:06;;;;;;;23.45;14.65;;;;;;;;;;4251592;33;20054;-75
2023/07/04 16:30:32;;;;;;;21.00;14.73;;;;;;;;;;4236612;33;20041;-76
2023/07/04 16:32:58;;;;;;;25.77;15.38;;;;;;;;;;4234164;33;20038;-74
2023/07/04 16:35:24;;;;;;;27.58;16.67;;;;;;;;;;4214004;33;20058;-75
2023/07/04 16:37:57;;;;;;;21.87;16.35;;;;;;;;;;4235783;33;20205;-74
2023/07/04 16:40:23;;;;;;;25.62;14.77;;;;;;;;;;4237335;33;20042;-75